Time;durP1;ratioP1;P1;durP2;ratioP2;P2;SDS_P1;SDS_P2;PMS_P1;PMS_P2;Temp;Humidity;BMP_temperature;BMP_pressure;BME280_temperature;BME280_humidity;BME280_pressure;Samples;Min_cycle;Max_cycle;Signal;HPM_P1;HPM_P2
2021/09/07 00:00:46;;;;;;;13.70;12.37;;;;;;;;;;5056118;28;20227;-64
2021/09/07 00:03:12;;;;;;;16.67;15.10;;;;;;;;;;5056503;28;20302;-64
2021/09/07 00:05:37;;;;;;;15.67;13.03;;;;;;;;;;5055923;28;20220;-64
2021/09/07 00:08:02;;;;;;;16.60;13.97;;;;;;;;;;5056112;28;20295;-63
2021/09/07 00:10:29;;;;;;;14.40;13.00;;;;;;;;;;5055632;28;20217;-64
2021/09/07 00:12:54;;;;;;;15.63;14.13;;;;;;;;;;5056053;28;20618;-64
2021/09/07 00:15:19;;;;;;;15.03;13.63;;;;;;;;;;5056128;28;20467;-64
2021/09/07 00:17:45;;;;;;;15.30;13.70;;;;;;;;;;5055645;28;20263;-64
2021/09/07 00:20:11;;;;;;;16.70;11.40;;;;;;;;;;5055935;28;20264;-63
2021/09/07 00:22:37;;;;;;;16.27;13.90;;;;;;;;;;5055771;28;20484;-64
2021/09/07 00:25:04;;;;;;;15.33;13.57;;;;;;;;;;5055971;28;20231;-64
2021/09/07 00:27:29;;;;;;;13.17;11.83;;;;;;;;;;5055341;28;20672;-63
2021/09/07 00:29:54;;;;;;;14.80;13.00;;;;;;;;;;5055688;28;20468;-64
2021/09/07 00:32:20;;;;;;;16.53;13.30;;;;;;;;;;5055669;28;20607;-64
2021/09/07 00:34:45;;;;;;;15.03;13.57;;;;;;;;;;5055395;28;20229;-64
2021/09/07 00:37:10;;;;;;;12.90;11.60;;;;;;;;;;5055890;28;20256;-64
2021/09/07 00:39:36;;;;;;;16.47;13.27;;;;;;;;;;5055112;28;20221;-64
2021/09/07 00:42:01;;;;;;;14.27;12.83;;;;;;;;;;5055742;28;20231;-64
2021/09/07 00:44:27;;;;;;;13.97;12.53;;;;;;;;;;5055191;28;20213;-62
2021/09/07 00:46:57;;;;;;;14.27;12.83;;;;;;;;;;5055527;28;20660;-65
2021/09/07 00:49:24;;;;;;;13.97;12.60;;;;;;;;;;5037999;28;20649;-64
2021/09/07 00:51:50;;;;;;;14.60;12.03;;;;;;;;;;5055103;28;20451;-64
2021/09/07 00:54:16;;;;;;;14.73;13.07;;;;;;;;;;5055354;28;20464;-64
2021/09/07 00:56:42;;;;;;;19.33;13.57;;;;;;;;;;5037201;28;20773;-64
2021/09/07 00:59:09;;;;;;;14.17;12.77;;;;;;;;;;5055183;28;20471;-64
2021/09/07 01:01:34;;;;;;;15.57;13.13;;;;;;;;;;5054896;28;20866;-64
2021/09/07 01:04:00;;;;;;;15.80;14.30;;;;;;;;;;5055325;28;20490;-64
2021/09/07 01:06:26;;;;;;;14.90;13.50;;;;;;;;;;5055274;28;20232;-63
2021/09/07 01:08:52;;;;;;;14.93;13.47;;;;;;;;;;5037190;28;20220;-64
2021/09/07 01:11:18;;;;;;;16.27;14.70;;;;;;;;;;5037589;28;20476;-64
2021/09/07 01:13:45;;;;;;;15.43;12.53;;;;;;;;;;5054779;28;20653;-64
2021/09/07 01:16:10;;;;;;;14.13;12.67;;;;;;;;;;5054950;28;20546;-64
2021/09/07 01:18:35;;;;;;;14.73;13.20;;;;;;;;;;5054460;28;20456;-64
2021/09/07 01:21:01;;;;;;;15.50;13.17;;;;;;;;;;5054707;28;20656;-65
2021/09/07 01:23:26;;;;;;;14.03;12.40;;;;;;;;;;5054991;28;20228;-65
2021/09/07 01:25:52;;;;;;;16.37;12.30;;;;;;;;;;5054291;28;20216;-64
2021/09/07 01:28:18;;;;;;;14.07;12.57;;;;;;;;;;5054598;28;20225;-65
2021/09/07 01:30:44;;;;;;;14.60;12.80;;;;;;;;;;5054245;28;20221;-64
2021/09/07 01:33:10;;;;;;;16.23;13.70;;;;;;;;;;5054894;28;20768;-64
2021/09/07 01:35:39;;;;;;;14.67;13.17;;;;;;;;;;5054458;28;20232;-64
2021/09/07 01:38:04;;;;;;;15.30;13.80;;;;;;;;;;5036830;28;20982;-64
2021/09/07 01:40:29;;;;;;;15.47;12.47;;;;;;;;;;5054722;28;20579;-65
2021/09/07 01:42:54;;;;;;;15.63;14.03;;;;;;;;;;5054032;28;20566;-64
2021/09/07 01:45:19;;;;;;;16.40;14.33;;;;;;;;;;5054338;28;20205;-63
2021/09/07 01:47:46;;;;;;;13.50;12.10;;;;;;;;;;5051216;28;20232;-65
2021/09/07 01:50:12;;;;;;;13.13;11.83;;;;;;;;;;5054525;28;20686;-65
2021/09/07 01:52:37;;;;;;;16.07;14.30;;;;;;;;;;5062723;28;20463;-64
2021/09/07 01:55:03;;;;;;;20.87;14.17;;;;;;;;;;5061808;28;20247;-65
2021/09/07 01:57:28;;;;;;;17.10;12.90;;;;;;;;;;5067489;28;20228;-65
2021/09/07 01:59:53;;;;;;;16.83;13.77;;;;;;;;;;5066163;28;20700;-65
2021/09/07 02:02:18;;;;;;;17.13;13.80;;;;;;;;;;5042737;28;20231;-63
2021/09/07 02:04:46;;;;;;;16.20;14.53;;;;;;;;;;5060103;28;20285;-64
2021/09/07 02:07:12;;;;;;;16.47;13.67;;;;;;;;;;5067375;28;20221;-63
2021/09/07 02:09:37;;;;;;;16.93;14.53;;;;;;;;;;5064847;28;20471;-63
2021/09/07 02:12:03;;;;;;;17.23;14.57;;;;;;;;;;5060231;28;20746;-65
2021/09/07 02:14:29;;;;;;;18.50;14.83;;;;;;;;;;5062170;28;20217;-65
2021/09/07 02:16:54;;;;;;;30.37;23.50;;;;;;;;;;5066740;28;20221;-64
2021/09/07 02:19:19;;;;;;;17.20;15.40;;;;;;;;;;5065500;28;20564;-65
2021/09/07 02:21:44;;;;;;;15.57;14.03;;;;;;;;;;5060309;28;20233;-65
2021/09/07 02:24:10;;;;;;;23.40;20.40;;;;;;;;;;5062365;28;20367;-64
2021/09/07 02:26:35;;;;;;;23.13;19.90;;;;;;;;;;5066687;28;20237;-64
2021/09/07 02:29:00;;;;;;;22.97;19.57;;;;;;;;;;5064892;28;20248;-65
2021/09/07 02:31:25;;;;;;;16.40;14.80;;;;;;;;;;5059733;28;20290;-65
2021/09/07 02:33:51;;;;;;;19.13;15.37;;;;;;;;;;5062256;28;20304;-66
2021/09/07 02:36:16;;;;;;;14.40;13.00;;;;;;;;;;5067111;28;20221;-65
2021/09/07 02:38:41;;;;;;;21.23;17.43;;;;;;;;;;5046491;28;20307;-64
2021/09/07 02:41:07;;;;;;;25.83;23.13;;;;;;;;;;5059745;28;20235;-65
2021/09/07 02:43:32;;;;;;;20.23;18.13;;;;;;;;;;5063037;28;20225;-64
2021/09/07 02:45:57;;;;;;;21.43;19.17;;;;;;;;;;5066558;28;20232;-64
2021/09/07 02:48:23;;;;;;;22.40;18.40;;;;;;;;;;5055137;28;20224;-64
2021/09/07 02:50:48;;;;;;;20.97;18.47;;;;;;;;;;5066621;28;20225;-64
2021/09/07 02:53:14;;;;;;;22.53;19.70;;;;;;;;;;5061319;28;20278;-65
2021/09/07 02:55:39;;;;;;;24.77;21.47;;;;;;;;;;5065588;28;20399;-63
2021/09/07 02:58:04;;;;;;;20.27;17.30;;;;;;;;;;5060910;28;20244;-65
2021/09/07 03:00:30;;;;;;;30.30;25.40;;;;;;;;;;5059692;28;20565;-65
2021/09/07 03:02:56;;;;;;;23.43;20.97;;;;;;;;;;5065668;28;20236;-64
2021/09/07 03:05:21;;;;;;;17.73;15.97;;;;;;;;;;5066495;28;20471;-64
2021/09/07 03:07:46;;;;;;;28.57;25.00;;;;;;;;;;5059707;28;20307;-64
2021/09/07 03:10:11;;;;;;;19.20;17.33;;;;;;;;;;5059782;28;20233;-65
2021/09/07 03:12:37;;;;;;;23.13;18.37;;;;;;;;;;5046369;28;20239;-65
2021/09/07 03:15:03;;;;;;;19.20;15.97;;;;;;;;;;5059873;28;20249;-66
2021/09/07 03:17:28;;;;;;;16.57;14.80;;;;;;;;;;5066702;28;20221;-64
2021/09/07 03:19:53;;;;;;;17.20;14.33;;;;;;;;;;5066961;28;20235;-65
2021/09/07 03:22:18;;;;;;;18.63;15.37;;;;;;;;;;5063110;28;20709;-64
2021/09/07 03:24:44;;;;;;;19.20;16.80;;;;;;;;;;5063552;28;20221;-64
2021/09/07 03:27:09;;;;;;;17.17;15.33;;;;;;;;;;5070399;28;20358;-65
2021/09/07 03:29:34;;;;;;;17.27;15.40;;;;;;;;;;5069297;28;20262;-64
2021/09/07 03:31:59;;;;;;;16.67;14.97;;;;;;;;;;5062671;28;20235;-64
2021/09/07 03:34:25;;;;;;;16.70;14.97;;;;;;;;;;5046560;28;20358;-63
2021/09/07 03:36:50;;;;;;;18.97;17.00;;;;;;;;;;5069915;28;20308;-65
2021/09/07 03:39:15;;;;;;;15.37;13.87;;;;;;;;;;5069076;28;20611;-64
2021/09/07 03:41:41;;;;;;;14.13;12.63;;;;;;;;;;5062201;28;20243;-64
2021/09/07 03:44:06;;;;;;;16.77;14.30;;;;;;;;;;5047707;28;20221;-64
2021/09/07 03:46:31;;;;;;;16.50;14.80;;;;;;;;;;5070186;28;20299;-65
2021/09/07 03:48:57;;;;;;;22.00;17.90;;;;;;;;;;5057517;28;20279;-64
2021/09/07 03:51:22;;;;;;;15.67;14.00;;;;;;;;;;5069598;28;20216;-64
2021/09/07 03:53:48;;;;;;;21.47;17.17;;;;;;;;;;5064978;28;20221;-65
2021/09/07 03:56:14;;;;;;;17.37;14.50;;;;;;;;;;5071656;28;20220;-64
2021/09/07 03:58:39;;;;;;;17.73;15.87;;;;;;;;;;5064895;28;20658;-64
2021/09/07 04:01:05;;;;;;;18.37;15.23;;;;;;;;;;5062370;28;20490;-65
2021/09/07 04:03:30;;;;;;;19.80;16.73;;;;;;;;;;5067693;28;20660;-65
2021/09/07 04:05:55;;;;;;;19.83;17.70;;;;;;;;;;5034732;28;20236;-65
2021/09/07 04:08:20;;;;;;;19.10;16.97;;;;;;;;;;5064647;28;20229;-65
2021/09/07 04:10:46;;;;;;;19.73;17.13;;;;;;;;;;5061994;28;20304;-64
2021/09/07 04:13:11;;;;;;;22.40;19.10;;;;;;;;;;5067717;28;20225;-66
2021/09/07 04:15:36;;;;;;;21.07;18.87;;;;;;;;;;5069337;28;20286;-65
2021/09/07 04:18:01;;;;;;;19.93;16.93;;;;;;;;;;5063781;28;20217;-65
2021/09/07 04:20:27;;;;;;;18.60;16.20;;;;;;;;;;5062271;28;20667;-65
2021/09/07 04:22:52;;;;;;;19.87;17.87;;;;;;;;;;5067886;28;20289;-64
2021/09/07 04:25:18;;;;;;;19.43;17.27;;;;;;;;;;5051559;28;20224;-65
2021/09/07 04:27:43;;;;;;;19.90;17.40;;;;;;;;;;5062342;28;20221;-65
2021/09/07 04:30:09;;;;;;;20.70;17.90;;;;;;;;;;5062052;28;20229;-65
2021/09/07 04:32:35;;;;;;;19.90;17.90;;;;;;;;;;5067987;28;20229;-65
2021/09/07 04:35:00;;;;;;;17.30;15.50;;;;;;;;;;5068467;28;20450;-65
2021/09/07 04:37:26;;;;;;;16.67;14.90;;;;;;;;;;5062122;28;20790;-64
2021/09/07 04:39:52;;;;;;;21.60;17.33;;;;;;;;;;5043940;28;20695;-64
2021/09/07 04:42:17;;;;;;;16.80;15.07;;;;;;;;;;5069016;28;20467;-65
2021/09/07 04:44:43;;;;;;;19.57;17.30;;;;;;;;;;5068477;28;20394;-64
2021/09/07 04:47:08;;;;;;;16.67;14.97;;;;;;;;;;5061912;28;20231;-65
2021/09/07 04:49:33;;;;;;;21.17;18.90;;;;;;;;;;5052322;28;20240;-64
2021/09/07 04:51:59;;;;;;;21.20;17.87;;;;;;;;;;5067671;28;20232;-64
2021/09/07 04:54:24;;;;;;;21.63;17.57;;;;;;;;;;5066930;28;20247;-67
2021/09/07 04:56:49;;;;;;;19.60;17.50;;;;;;;;;;5049449;28;20226;-67
2021/09/07 04:59:14;;;;;;;23.50;19.90;;;;;;;;;;5068725;28;20282;-64
2021/09/07 05:01:40;;;;;;;21.30;17.23;;;;;;;;;;5061675;28;20311;-66
2021/09/07 05:04:05;;;;;;;20.80;18.17;;;;;;;;;;5061329;28;20228;-65
2021/09/07 05:06:30;;;;;;;20.93;16.90;;;;;;;;;;5068239;28;20315;-64
2021/09/07 05:08:56;;;;;;;18.93;16.10;;;;;;;;;;5067746;28;20250;-65
2021/09/07 05:11:21;;;;;;;20.77;16.20;;;;;;;;;;5061249;28;20611;-65
2021/09/07 05:13:46;;;;;;;19.03;16.50;;;;;;;;;;5061784;28;20221;-65
2021/09/07 05:16:11;;;;;;;20.60;17.00;;;;;;;;;;5068050;28;20304;-65
2021/09/07 05:18:37;;;;;;;17.87;15.93;;;;;;;;;;5067604;28;20216;-65
2021/09/07 05:21:02;;;;;;;19.03;16.27;;;;;;;;;;5060456;28;20310;-65
2021/09/07 05:23:27;;;;;;;18.30;15.57;;;;;;;;;;5063065;28;20536;-66
2021/09/07 05:25:53;;;;;;;18.40;14.37;;;;;;;;;;5067438;28;20224;-66
2021/09/07 05:28:18;;;;;;;16.00;14.50;;;;;;;;;;5066355;28;20220;-66
2021/09/07 05:30:43;;;;;;;19.43;15.10;;;;;;;;;;5060985;28;20225;-66
2021/09/07 05:33:08;;;;;;;17.70;13.93;;;;;;;;;;5062621;28;20312;-67
2021/09/07 05:35:34;;;;;;;16.47;14.30;;;;;;;;;;5050599;28;20233;-65
2021/09/07 05:37:59;;;;;;;19.80;16.77;;;;;;;;;;5064844;28;20311;-65
2021/09/07 05:40:25;;;;;;;18.73;15.53;;;;;;;;;;5060681;28;20706;-66
2021/09/07 05:42:50;;;;;;;18.17;16.27;;;;;;;;;;5045050;28;20308;-66
2021/09/07 05:45:17;;;;;;;19.60;15.80;;;;;;;;;;5067168;28;20232;-66
2021/09/07 05:47:43;;;;;;;17.93;16.03;;;;;;;;;;5064488;28;20224;-66
2021/09/07 05:50:08;;;;;;;17.20;15.30;;;;;;;;;;5059274;28;20455;-66
2021/09/07 05:52:34;;;;;;;18.70;16.60;;;;;;;;;;5061912;28;20691;-66
2021/09/07 05:54:59;;;;;;;17.23;15.50;;;;;;;;;;5070747;28;20220;-66
2021/09/07 05:57:24;;;;;;;20.70;17.60;;;;;;;;;;5044461;28;20290;-66
2021/09/07 05:59:51;;;;;;;25.70;19.57;;;;;;;;;;5066887;28;20620;-66
2021/09/07 06:02:16;;;;;;;23.33;18.13;;;;;;;;;;5048398;28;20224;-66
2021/09/07 06:04:41;;;;;;;21.03;18.47;;;;;;;;;;5060471;28;20481;-66
2021/09/07 06:07:07;;;;;;;21.50;17.50;;;;;;;;;;5061912;28;20235;-65
2021/09/07 06:09:32;;;;;;;19.37;17.27;;;;;;;;;;5067198;28;20308;-66
2021/09/07 06:11:57;;;;;;;23.13;18.63;;;;;;;;;;5064170;28;20324;-67
2021/09/07 06:14:22;;;;;;;18.90;16.83;;;;;;;;;;5060143;28;20234;-65
2021/09/07 06:16:48;;;;;;;19.90;17.77;;;;;;;;;;5062558;28;20316;-64
2021/09/07 06:19:13;;;;;;;17.50;15.70;;;;;;;;;;5067182;28;20243;-66
2021/09/07 06:21:38;;;;;;;18.30;16.27;;;;;;;;;;5063900;28;20248;-66
2021/09/07 06:24:04;;;;;;;17.43;14.90;;;;;;;;;;5059713;28;20216;-66
2021/09/07 06:26:29;;;;;;;19.50;15.73;;;;;;;;;;5063522;28;20557;-67
2021/09/07 06:28:54;;;;;;;16.50;14.80;;;;;;;;;;5066774;28;20240;-65
2021/09/07 06:31:19;;;;;;;19.70;15.33;;;;;;;;;;5063254;28;20232;-66
2021/09/07 06:33:45;;;;;;;16.30;13.53;;;;;;;;;;5059796;28;20265;-66
2021/09/07 06:36:10;;;;;;;25.77;16.57;;;;;;;;;;5063859;28;20217;-65
2021/09/07 06:38:35;;;;;;;21.87;14.60;;;;;;;;;;5067061;28;20220;-66
2021/09/07 06:41:01;;;;;;;18.67;14.47;;;;;;;;;;5061938;28;20539;-66
2021/09/07 06:43:26;;;;;;;22.97;13.67;;;;;;;;;;5060012;28;20300;-67
2021/09/07 06:45:51;;;;;;;15.33;12.93;;;;;;;;;;5064608;28;20669;-65
2021/09/07 06:48:17;;;;;;;18.07;12.80;;;;;;;;;;5064153;28;20629;-66
2021/09/07 06:50:42;;;;;;;17.37;12.67;;;;;;;;;;5063628;28;20298;-66
2021/09/07 06:53:07;;;;;;;15.37;12.00;;;;;;;;;;5059331;28;20285;-66
2021/09/07 06:55:33;;;;;;;17.17;13.80;;;;;;;;;;5073279;28;20670;-67
2021/09/07 06:57:58;;;;;;;16.60;13.70;;;;;;;;;;5063573;28;20549;-66
2021/09/07 07:00:23;;;;;;;14.53;12.83;;;;;;;;;;5049918;28;20303;-66
2021/09/07 07:02:49;;;;;;;12.73;11.47;;;;;;;;;;5070895;28;20236;-66
2021/09/07 07:05:15;;;;;;;13.77;11.70;;;;;;;;;;5066357;28;20224;-66
2021/09/07 07:07:40;;;;;;;13.90;12.37;;;;;;;;;;5063494;28;20225;-66
2021/09/07 07:10:06;;;;;;;11.07;9.90;;;;;;;;;;5067623;28;20320;-66
2021/09/07 07:12:31;;;;;;;11.33;9.33;;;;;;;;;;5070357;28;20216;-66
2021/09/07 07:14:56;;;;;;;13.00;10.17;;;;;;;;;;5047925;28;20225;-66
2021/09/07 07:17:21;;;;;;;11.53;10.40;;;;;;;;;;5063399;28;20221;-66
2021/09/07 07:19:50;;;;;;;16.17;10.40;;;;;;;;;;5069111;28;20233;-66
2021/09/07 07:22:15;;;;;;;13.73;10.50;;;;;;;;;;5069925;28;20228;-65
2021/09/07 07:24:40;;;;;;;14.00;11.70;;;;;;;;;;5065450;28;20474;-65
2021/09/07 07:27:06;;;;;;;15.87;11.17;;;;;;;;;;5062972;28;20308;-66
2021/09/07 07:29:31;;;;;;;14.77;12.20;;;;;;;;;;5068774;28;20579;-66
2021/09/07 07:31:56;;;;;;;14.87;11.30;;;;;;;;;;5069599;28;20264;-65
2021/09/07 07:34:22;;;;;;;10.27;9.03;;;;;;;;;;5064340;28;20629;-65
2021/09/07 07:36:47;;;;;;;16.40;10.37;;;;;;;;;;5062962;28;20231;-64
2021/09/07 07:39:13;;;;;;;12.00;10.90;;;;;;;;;;5068851;28;20232;-66
2021/09/07 07:41:38;;;;;;;14.90;10.60;;;;;;;;;;5069782;28;20699;-65
2021/09/07 07:44:03;;;;;;;11.77;10.50;;;;;;;;;;5062992;28;20220;-65
2021/09/07 07:46:29;;;;;;;11.60;10.40;;;;;;;;;;5063051;28;20556;-65
2021/09/07 07:48:54;;;;;;;10.63;9.53;;;;;;;;;;5066509;28;20230;-65
2021/09/07 07:51:20;;;;;;;9.10;8.20;;;;;;;;;;5052217;28;20225;-65
2021/09/07 07:53:45;;;;;;;14.00;9.40;;;;;;;;;;5064698;28;20224;-65
2021/09/07 07:56:10;;;;;;;11.30;9.80;;;;;;;;;;5072346;28;20290;-66
2021/09/07 07:58:36;;;;;;;12.90;10.07;;;;;;;;;;5064534;28;20228;-65
2021/09/07 08:01:01;;;;;;;10.73;9.00;;;;;;;;;;5062103;28;20304;-65
2021/09/07 08:03:26;;;;;;;11.00;9.20;;;;;;;;;;5068097;28;20228;-65
2021/09/07 08:05:52;;;;;;;12.37;10.20;;;;;;;;;;5068999;28;20763;-64
2021/09/07 08:08:17;;;;;;;11.13;9.97;;;;;;;;;;5062793;28;20247;-64
2021/09/07 08:10:42;;;;;;;12.90;10.83;;;;;;;;;;5062565;28;20239;-65
2021/09/07 08:13:08;;;;;;;12.40;10.07;;;;;;;;;;5068074;28;20684;-65
2021/09/07 08:15:33;;;;;;;12.70;10.73;;;;;;;;;;5069059;28;20228;-66
2021/09/07 08:17:59;;;;;;;12.73;11.20;;;;;;;;;;5044849;28;20216;-65
2021/09/07 08:20:25;;;;;;;16.50;10.93;;;;;;;;;;5044340;28;20221;-66
2021/09/07 08:22:50;;;;;;;15.70;13.37;;;;;;;;;;5068659;28;20474;-66
2021/09/07 08:25:15;;;;;;;11.27;10.00;;;;;;;;;;5068675;28;20233;-66
2021/09/07 08:27:40;;;;;;;17.10;10.80;;;;;;;;;;5062068;28;20245;-66
2021/09/07 08:30:07;;;;;;;15.17;13.60;;;;;;;;;;5062081;28;20244;-66
2021/09/07 08:32:32;;;;;;;13.50;12.10;;;;;;;;;;5068894;28;20241;-67
2021/09/07 08:34:57;;;;;;;14.30;12.80;;;;;;;;;;5049182;28;20495;-65
2021/09/07 08:37:22;;;;;;;17.77;14.43;;;;;;;;;;5068976;28;20531;-66
2021/09/07 08:39:48;;;;;;;15.93;12.80;;;;;;;;;;5068089;28;20225;-66
2021/09/07 08:42:13;;;;;;;22.37;13.23;;;;;;;;;;5061717;28;20719;-67
2021/09/07 08:44:45;;;;;;;18.40;12.33;;;;;;;;;;5063182;28;20221;-67
2021/09/07 08:47:12;;;;;;;17.97;12.33;;;;;;;;;;5068396;28;20221;-67
2021/09/07 08:49:38;;;;;;;13.50;11.23;;;;;;;;;;5056805;28;20468;-68
2021/09/07 08:52:03;;;;;;;15.80;11.97;;;;;;;;;;5054798;28;20470;-64
2021/09/07 08:54:29;;;;;;;13.60;11.57;;;;;;;;;;5044327;28;20657;-64
2021/09/07 08:56:54;;;;;;;13.47;11.70;;;;;;;;;;5067013;28;20252;-65
2021/09/07 08:59:19;;;;;;;12.13;10.93;;;;;;;;;;5068275;28;20607;-67
2021/09/07 09:01:52;;;;;;;16.10;12.60;;;;;;;;;;5062886;28;20235;-66
2021/09/07 09:04:28;;;;;;;13.33;11.37;;;;;;;;;;5061468;28;20256;-66
2021/09/07 09:06:54;;;;;;;14.10;11.07;;;;;;;;;;5056510;28;20628;-67
2021/09/07 09:09:19;;;;;;;14.20;12.80;;;;;;;;;;5057519;28;20792;-67
2021/09/07 09:11:53;;;;;;;11.40;10.10;;;;;;;;;;5048030;28;20563;-68
2021/09/07 09:14:35;;;;;;;15.07;12.40;;;;;;;;;;5067889;28;20217;-67
2021/09/07 09:17:20;;;;;;;16.97;12.63;;;;;;;;;;5049662;28;20465;-66
2021/09/07 09:20:06;;;;;;;11.57;10.37;;;;;;;;;;5052016;28;20550;-68
2021/09/07 09:22:53;;;;;;;13.03;11.67;;;;;;;;;;5069836;28;20466;-67
2021/09/07 09:25:18;;;;;;;12.57;11.23;;;;;;;;;;5067563;28;20809;-67
2021/09/07 09:27:43;;;;;;;14.20;12.13;;;;;;;;;;5061253;28;20459;-67
2021/09/07 09:30:10;;;;;;;14.57;11.20;;;;;;;;;;5043741;28;20606;-69
2021/09/07 09:32:44;;;;;;;15.33;10.83;;;;;;;;;;5068004;28;20666;-67
2021/09/07 09:35:10;;;;;;;14.83;11.13;;;;;;;;;;5049920;28;20486;-68
2021/09/07 09:37:54;;;;;;;12.80;10.20;;;;;;;;;;5061949;28;20542;-67
2021/09/07 09:40:20;;;;;;;13.83;12.43;;;;;;;;;;5060227;28;20299;-67
2021/09/07 09:42:45;;;;;;;13.50;10.90;;;;;;;;;;5046929;28;20459;-67
2021/09/07 09:45:10;;;;;;;14.10;10.53;;;;;;;;;;5067452;28;20217;-67
2021/09/07 09:47:39;;;;;;;11.97;10.73;;;;;;;;;;5063721;28;20224;-67
2021/09/07 09:50:05;;;;;;;12.77;11.50;;;;;;;;;;5060585;28;20293;-67
2021/09/07 09:52:35;;;;;;;14.03;11.00;;;;;;;;;;5044642;28;20453;-68
2021/09/07 09:55:02;;;;;;;13.33;11.67;;;;;;;;;;5069369;28;20221;-68
2021/09/07 09:57:27;;;;;;;12.87;11.47;;;;;;;;;;5061151;28;20483;-67
2021/09/07 09:59:54;;;;;;;13.27;10.97;;;;;;;;;;5067697;28;20483;-67
2021/09/07 10:02:20;;;;;;;12.70;9.30;;;;;;;;;;5065916;28;20252;-66
2021/09/07 10:04:45;;;;;;;10.57;9.40;;;;;;;;;;5042890;28;20466;-67
2021/09/07 10:07:11;;;;;;;13.17;11.23;;;;;;;;;;5061341;28;20529;-67
2021/09/07 10:09:38;;;;;;;11.20;9.87;;;;;;;;;;5067234;28;20236;-67
2021/09/07 10:12:20;;;;;;;13.20;11.20;;;;;;;;;;5066352;28;20461;-67
2021/09/07 10:15:02;;;;;;;12.03;10.83;;;;;;;;;;5031988;28;20501;-67
2021/09/07 10:20:16;;;;;;;10.50;9.43;;;;;;;;;;5060514;28;20466;-65
2021/09/07 10:23:05;;;;;;;14.60;11.80;;;;;;;;;;5050047;28;20494;-67
2021/09/07 10:25:57;;;;;;;13.50;11.70;;;;;;;;;;5066611;28;20479;-67
2021/09/07 10:28:38;;;;;;;11.10;9.83;;;;;;;;;;5066801;28;20775;-67
2021/09/07 10:31:04;;;;;;;12.83;10.60;;;;;;;;;;5061714;28;20458;-67
2021/09/07 10:33:45;;;;;;;13.40;11.97;;;;;;;;;;5059616;28;20955;-67
2021/09/07 10:36:13;;;;;;;9.67;8.67;;;;;;;;;;5063428;28;20502;-67
2021/09/07 10:38:44;;;;;;;11.03;9.70;;;;;;;;;;5066592;28;20510;-67
2021/09/07 10:41:30;;;;;;;10.13;8.17;;;;;;;;;;5064794;28;20483;-67
2021/09/07 10:44:00;;;;;;;9.37;8.30;;;;;;;;;;5047796;28;20825;-66
2021/09/07 10:46:43;;;;;;;10.83;9.03;;;;;;;;;;5059799;28;20460;-67
2021/09/07 10:49:45;;;;;;;11.17;9.10;;;;;;;;;;5061967;28;20468;-66
2021/09/07 10:52:13;;;;;;;10.50;9.50;;;;;;;;;;5051183;28;20454;-67
2021/09/07 10:54:41;;;;;;;9.90;8.83;;;;;;;;;;5060021;28;20452;-67
2021/09/07 10:57:07;;;;;;;13.00;8.93;;;;;;;;;;5063328;28;20808;-66
2021/09/07 10:59:53;;;;;;;9.90;8.90;;;;;;;;;;5066433;28;20460;-67
2021/09/07 11:02:38;;;;;;;10.50;8.97;;;;;;;;;;5065164;28;20222;-66
2021/09/07 11:05:05;;;;;;;10.00;9.00;;;;;;;;;;5049274;28;20477;-66
2021/09/07 11:07:39;;;;;;;11.43;9.13;;;;;;;;;;5059722;28;20456;-67
2021/09/07 11:10:05;;;;;;;9.20;8.20;;;;;;;;;;5063419;28;20578;-66
2021/09/07 11:12:32;;;;;;;10.30;8.37;;;;;;;;;;5066385;28;20930;-67
2021/09/07 11:15:00;;;;;;;8.47;7.57;;;;;;;;;;5062368;28;20534;-67
2021/09/07 11:17:25;;;;;;;9.13;8.23;;;;;;;;;;5059543;28;20472;-67
2021/09/07 11:20:00;;;;;;;8.57;7.60;;;;;;;;;;5045759;28;20535;-67
2021/09/07 11:22:27;;;;;;;8.70;7.77;;;;;;;;;;5066109;28;20224;-67
2021/09/07 11:25:13;;;;;;;11.13;7.83;;;;;;;;;;5046075;28;20463;-67
2021/09/07 11:28:12;;;;;;;9.13;8.33;;;;;;;;;;5059617;28;20462;-67
2021/09/07 11:30:40;;;;;;;15.40;8.87;;;;;;;;;;5015682;28;20978;-67
2021/09/07 11:33:12;;;;;;;9.40;8.47;;;;;;;;;;5061920;28;20982;-67
2021/09/07 11:35:45;;;;;;;10.33;9.33;;;;;;;;;;5066293;28;20923;-67
2021/09/07 11:38:13;;;;;;;7.90;7.10;;;;;;;;;;5066198;28;20458;-67
2021/09/07 11:40:47;;;;;;;7.43;6.67;;;;;;;;;;5046001;28;20540;-67
2021/09/07 11:43:14;;;;;;;10.10;7.00;;;;;;;;;;5062901;28;20466;-68
2021/09/07 11:45:39;;;;;;;8.30;7.60;;;;;;;;;;5051230;28;20459;-67
2021/09/07 11:48:06;;;;;;;8.63;7.83;;;;;;;;;;5068970;28;20776;-67
2021/09/07 11:50:34;;;;;;;8.00;7.20;;;;;;;;;;5064873;28;20231;-68
2021/09/07 11:53:03;;;;;;;7.50;6.80;;;;;;;;;;5062878;28;20835;-67
2021/09/07 11:55:48;;;;;;;13.07;8.80;;;;;;;;;;5072575;28;20858;-66
2021/09/07 11:58:38;;;;;;;9.07;8.17;;;;;;;;;;5045494;28;20682;-67
2021/09/07 12:01:23;;;;;;;9.03;7.80;;;;;;;;;;5062050;28;20468;-66
2021/09/07 12:03:51;;;;;;;9.23;8.23;;;;;;;;;;5065871;28;20535;-67
2021/09/07 12:06:41;;;;;;;9.50;8.60;;;;;;;;;;5051691;28;20471;-67
2021/09/07 12:09:29;;;;;;;8.70;7.70;;;;;;;;;;5068876;28;20475;-67
2021/09/07 12:12:00;;;;;;;9.10;8.20;;;;;;;;;;5066412;28;20542;-67
2021/09/07 12:14:25;;;;;;;8.90;8.10;;;;;;;;;;5062094;28;20451;-66
2021/09/07 12:16:56;;;;;;;8.70;7.80;;;;;;;;;;5065138;28;20943;-67
2021/09/07 12:19:37;;;;;;;11.47;9.60;;;;;;;;;;5068790;28;20680;-69
2021/09/07 12:22:21;;;;;;;9.77;8.87;;;;;;;;;;5069070;28;20462;-71
2021/09/07 12:25:04;;;;;;;12.23;9.07;;;;;;;;;;5065234;28;20497;-68
2021/09/07 12:27:32;;;;;;;10.40;8.90;;;;;;;;;;5062111;28;20484;-67
2021/09/07 12:30:12;;;;;;;9.43;8.53;;;;;;;;;;5063305;28;20471;-68
2021/09/07 12:32:52;;;;;;;8.50;7.70;;;;;;;;;;5050021;28;20463;-67
2021/09/07 12:35:26;;;;;;;8.90;8.00;;;;;;;;;;5061578;28;20774;-67
2021/09/07 12:37:51;;;;;;;8.90;8.13;;;;;;;;;;5065743;28;20527;-68
2021/09/07 12:40:17;;;;;;;9.07;8.20;;;;;;;;;;5068343;28;21051;-67
2021/09/07 12:42:42;;;;;;;9.40;8.47;;;;;;;;;;5064869;28;20217;-68
2021/09/07 12:45:07;;;;;;;9.90;8.90;;;;;;;;;;5061616;28;20221;-67
2021/09/07 12:47:32;;;;;;;8.90;8.03;;;;;;;;;;5066372;28;20661;-67
2021/09/07 12:49:58;;;;;;;9.83;8.93;;;;;;;;;;5059091;28;20311;-64
2021/09/07 12:52:23;;;;;;;10.60;8.60;;;;;;;;;;5063855;28;20644;-66
2021/09/07 12:54:48;;;;;;;11.00;9.90;;;;;;;;;;5069101;28;20292;-66
2021/09/07 12:57:13;;;;;;;10.83;9.80;;;;;;;;;;5063778;28;20244;-66
2021/09/07 12:59:39;;;;;;;9.10;8.20;;;;;;;;;;5068662;28;20307;-66
2021/09/07 13:02:04;;;;;;;9.47;8.57;;;;;;;;;;5064855;28;20223;-67
2021/09/07 13:04:30;;;;;;;12.13;10.90;;;;;;;;;;5061576;28;20712;-66
2021/09/07 13:06:56;;;;;;;9.03;8.23;;;;;;;;;;5063901;28;20232;-63
2021/09/07 13:09:21;;;;;;;9.53;8.70;;;;;;;;;;5068255;28;20807;-66
2021/09/07 13:11:46;;;;;;;10.10;9.20;;;;;;;;;;5064793;28;20313;-63
2021/09/07 13:14:11;;;;;;;9.40;8.50;;;;;;;;;;5060768;28;20217;-66
2021/09/07 13:16:37;;;;;;;8.37;7.13;;;;;;;;;;5065338;28;20350;-65
2021/09/07 13:19:02;;;;;;;9.20;8.37;;;;;;;;;;5067540;28;20216;-64
2021/09/07 13:21:28;;;;;;;8.33;7.63;;;;;;;;;;5063511;28;20232;-65
2021/09/07 13:23:53;;;;;;;7.70;7.00;;;;;;;;;;5061212;28;20236;-62
2021/09/07 13:26:19;;;;;;;7.80;7.00;;;;;;;;;;5065090;28;20911;-64
2021/09/07 13:28:44;;;;;;;8.00;7.03;;;;;;;;;;5067805;28;20308;-62
2021/09/07 13:31:09;;;;;;;8.67;7.70;;;;;;;;;;5063003;28;20556;-64
2021/09/07 13:33:35;;;;;;;10.50;9.40;;;;;;;;;;5060672;28;20213;-64
2021/09/07 13:36:00;;;;;;;8.70;7.90;;;;;;;;;;5065590;28;20228;-66
2021/09/07 13:38:26;;;;;;;10.53;9.00;;;;;;;;;;5067818;28;20217;-66
2021/09/07 13:40:51;;;;;;;9.47;8.50;;;;;;;;;;5062249;28;20266;-67
2021/09/07 13:43:16;;;;;;;9.90;8.90;;;;;;;;;;5060759;28;20295;-67
2021/09/07 13:45:41;;;;;;;8.80;8.00;;;;;;;;;;5056813;28;20545;-65
2021/09/07 13:48:09;;;;;;;9.27;8.37;;;;;;;;;;5051726;28;20240;-63
2021/09/07 13:50:34;;;;;;;9.90;8.30;;;;;;;;;;5053668;28;20316;-65
2021/09/07 13:53:00;;;;;;;10.87;9.73;;;;;;;;;;5053694;28;20531;-65
2021/09/07 13:55:25;;;;;;;9.33;8.27;;;;;;;;;;5036621;28;20221;-65
2021/09/07 13:57:50;;;;;;;9.80;8.90;;;;;;;;;;5053936;28;20229;-64
2021/09/07 14:00:16;;;;;;;9.47;8.33;;;;;;;;;;5051461;28;20304;-64
2021/09/07 14:02:42;;;;;;;8.83;8.03;;;;;;;;;;5051949;28;20296;-63
2021/09/07 14:05:10;;;;;;;10.30;9.00;;;;;;;;;;5050680;28;20535;-63
2021/09/07 14:07:35;;;;;;;8.50;7.67;;;;;;;;;;5051934;28;20236;-64
2021/09/07 14:10:01;;;;;;;9.33;8.43;;;;;;;;;;5051078;28;21006;-64
2021/09/07 14:12:26;;;;;;;8.17;7.47;;;;;;;;;;5052092;28;20217;-64
2021/09/07 14:14:51;;;;;;;8.37;7.63;;;;;;;;;;5054038;28;20228;-65
2021/09/07 14:17:16;;;;;;;11.23;7.13;;;;;;;;;;5053497;28;20217;-65
2021/09/07 14:19:42;;;;;;;7.87;7.07;;;;;;;;;;5036407;28;20300;-64
2021/09/07 14:22:07;;;;;;;8.83;7.93;;;;;;;;;;5053654;28;20271;-64
2021/09/07 14:24:32;;;;;;;8.20;7.03;;;;;;;;;;5054072;28;20224;-64
2021/09/07 14:26:58;;;;;;;8.70;7.90;;;;;;;;;;5054030;28;20271;-63